Time;durP1;ratioP1;P1;durP2;ratioP2;P2;SDS_P1;SDS_P2;PMS_P1;PMS_P2;Temp;Humidity;BMP_temperature;BMP_pressure;BME280_temperature;BME280_humidity;BME280_pressure;Samples;Min_cycle;Max_cycle;Signal;HPM_P1;HPM_P2
2022/01/29 00:01:51;;;;;;;14.48;6.88;;;;;;;;;;5031559;28;20053;-68
2022/01/29 00:04:18;;;;;;;12.50;6.55;;;;;;;;;;5031471;28;20045;-67
2022/01/29 00:06:45;;;;;;;10.50;6.93;;;;;;;;;;5031384;28;20100;-68
2022/01/29 00:09:14;;;;;;;11.38;6.70;;;;;;;;;;5031465;28;20049;-69
2022/01/29 00:11:42;;;;;;;11.60;7.80;;;;;;;;;;5031409;28;20119;-68
2022/01/29 00:14:09;;;;;;;11.05;6.57;;;;;;;;;;5031096;28;20049;-68
2022/01/29 00:16:36;;;;;;;11.70;6.93;;;;;;;;;;5031666;28;20485;-68
2022/01/29 00:19:03;;;;;;;11.32;6.20;;;;;;;;;;5030510;28;20116;-67
2022/01/29 00:21:29;;;;;;;15.38;7.05;;;;;;;;;;5031587;28;20076;-69
2022/01/29 00:23:56;;;;;;;10.52;6.60;;;;;;;;;;5031277;28;20086;-69
2022/01/29 00:26:25;;;;;;;10.48;6.72;;;;;;;;;;5031649;28;20064;-67
2022/01/29 00:28:52;;;;;;;11.77;7.40;;;;;;;;;;5031321;28;20063;-69
2022/01/29 00:31:19;;;;;;;12.65;7.15;;;;;;;;;;5031487;28;20062;-68
2022/01/29 00:33:45;;;;;;;11.00;7.00;;;;;;;;;;5030930;28;20049;-69
2022/01/29 00:36:12;;;;;;;11.27;7.18;;;;;;;;;;5031291;28;20492;-69
2022/01/29 00:38:39;;;;;;;11.50;6.68;;;;;;;;;;5031258;28;20171;-69
2022/01/29 00:41:06;;;;;;;14.30;7.45;;;;;;;;;;5031527;28;20045;-68
2022/01/29 00:43:34;;;;;;;10.90;7.25;;;;;;;;;;5030959;28;20459;-68
2022/01/29 00:46:00;;;;;;;12.55;7.78;;;;;;;;;;5031467;28;20046;-69
2022/01/29 00:48:27;;;;;;;13.00;8.35;;;;;;;;;;5031400;28;20055;-69
2022/01/29 00:50:54;;;;;;;13.43;8.20;;;;;;;;;;5031240;28;20563;-68
2022/01/29 00:53:21;;;;;;;13.15;7.72;;;;;;;;;;5031114;28;20053;-68
2022/01/29 00:55:48;;;;;;;12.60;7.47;;;;;;;;;;5030974;28;20049;-68
2022/01/29 00:58:14;;;;;;;11.25;8.15;;;;;;;;;;5031175;28;20559;-69
2022/01/29 01:00:41;;;;;;;10.85;7.88;;;;;;;;;;5031244;28;20058;-68
2022/01/29 01:03:08;;;;;;;14.70;7.70;;;;;;;;;;5031072;28;20052;-68
2022/01/29 01:05:34;;;;;;;13.13;7.45;;;;;;;;;;5031102;28;20053;-69
2022/01/29 01:08:01;;;;;;;13.35;8.05;;;;;;;;;;5030973;28;20045;-69
2022/01/29 01:10:28;;;;;;;12.55;8.07;;;;;;;;;;5031199;28;20050;-69
2022/01/29 01:12:54;;;;;;;15.30;7.78;;;;;;;;;;5030602;28;20401;-68
2022/01/29 01:15:21;;;;;;;11.95;8.07;;;;;;;;;;5031151;28;20409;-69
2022/01/29 01:17:47;;;;;;;13.27;7.68;;;;;;;;;;5030870;28;20092;-69
2022/01/29 01:20:14;;;;;;;13.68;7.65;;;;;;;;;;5030979;28;20045;-69
2022/01/29 01:22:40;;;;;;;13.85;8.07;;;;;;;;;;5030593;28;20570;-68
2022/01/29 01:25:08;;;;;;;15.07;9.15;;;;;;;;;;5031292;28;20050;-68
2022/01/29 01:27:35;;;;;;;10.60;7.70;;;;;;;;;;5034567;28;20053;-69
2022/01/29 01:30:02;;;;;;;12.13;7.22;;;;;;;;;;5033548;28;20054;-69
2022/01/29 01:32:28;;;;;;;13.10;7.22;;;;;;;;;;5034279;28;20075;-68
2022/01/29 01:35:05;;;;;;;12.77;7.47;;;;;;;;;;5034308;28;20057;-69
2022/01/29 01:37:43;;;;;;;11.73;8.13;;;;;;;;;;5034018;28;20492;-69
2022/01/29 01:40:11;;;;;;;12.75;7.95;;;;;;;;;;5034576;28;20049;-69
2022/01/29 01:42:37;;;;;;;14.73;8.20;;;;;;;;;;5033857;28;20049;-68
2022/01/29 01:45:04;;;;;;;10.90;7.38;;;;;;;;;;5034659;28;20057;-70
2022/01/29 01:47:31;;;;;;;15.25;8.10;;;;;;;;;;5034369;28;20094;-69
2022/01/29 01:49:58;;;;;;;11.32;8.07;;;;;;;;;;5034446;28;20103;-69
2022/01/29 01:52:24;;;;;;;18.83;9.27;;;;;;;;;;5034138;28;20089;-68
2022/01/29 01:54:51;;;;;;;28.13;14.27;;;;;;;;;;5034152;28;20065;-70
2022/01/29 01:57:18;;;;;;;14.75;9.88;;;;;;;;;;5033904;28;20448;-69
2022/01/29 01:59:44;;;;;;;91.40;37.15;;;;;;;;;;5033502;28;20057;-68
2022/01/29 02:02:11;;;;;;;55.42;24.98;;;;;;;;;;5034155;28;20122;-69
2022/01/29 02:04:38;;;;;;;15.13;9.70;;;;;;;;;;5033503;28;20052;-69
2022/01/29 02:07:05;;;;;;;13.57;8.57;;;;;;;;;;5033750;28;20060;-69
2022/01/29 02:09:32;;;;;;;17.17;9.48;;;;;;;;;;5032401;28;20049;-68
2022/01/29 02:12:02;;;;;;;16.90;9.55;;;;;;;;;;5033641;28;20493;-69
2022/01/29 02:14:31;;;;;;;16.48;9.02;;;;;;;;;;5033301;28;20057;-69
2022/01/29 02:17:00;;;;;;;18.20;8.98;;;;;;;;;;5033421;28;20049;-68
2022/01/29 02:19:26;;;;;;;19.70;9.30;;;;;;;;;;5033361;28;20049;-69
2022/01/29 02:21:54;;;;;;;15.40;8.90;;;;;;;;;;5033443;28;20056;-70
2022/01/29 02:24:21;;;;;;;13.57;8.57;;;;;;;;;;5033245;28;20069;-69
2022/01/29 02:26:47;;;;;;;14.60;8.60;;;;;;;;;;5033200;28;20049;-70
2022/01/29 02:29:15;;;;;;;15.57;9.32;;;;;;;;;;5033341;28;20424;-69
2022/01/29 02:31:48;;;;;;;16.05;8.55;;;;;;;;;;5033363;28;20049;-69
2022/01/29 02:34:15;;;;;;;;;;;;;;;;;;5033556;28;20050;-68
2022/01/29 02:36:42;;;;;;;14.43;8.45;;;;;;;;;;5032138;28;20430;-68
2022/01/29 02:39:10;;;;;;;14.02;8.23;;;;;;;;;;5032619;28;20129;-68
2022/01/29 02:41:40;;;;;;;13.88;9.00;;;;;;;;;;5031863;28;20045;-70
2022/01/29 02:44:08;;;;;;;14.77;8.57;;;;;;;;;;5032844;28;20049;-70
2022/01/29 02:49:17;;;;;;;10.20;7.57;;;;;;;;;;5033034;28;20049;-69
2022/01/29 02:51:45;;;;;;;15.57;9.50;;;;;;;;;;5032887;28;20504;-68
2022/01/29 02:57:52;;;;;;;15.15;8.57;;;;;;;;;;5032532;28;20559;-69
2022/01/29 03:00:19;;;;;;;13.25;8.05;;;;;;;;;;5032624;28;20428;-68
2022/01/29 03:02:46;;;;;;;17.65;9.55;;;;;;;;;;5032327;28;20053;-69
2022/01/29 03:05:13;;;;;;;16.65;9.07;;;;;;;;;;5032725;28;20124;-68
2022/01/29 03:07:40;;;;;;;13.27;9.63;;;;;;;;;;5032390;28;20045;-68
2022/01/29 03:10:07;;;;;;;14.27;8.65;;;;;;;;;;5032448;28;20053;-69
2022/01/29 03:12:34;;;;;;;14.98;8.57;;;;;;;;;;5032107;28;20089;-68
2022/01/29 03:15:01;;;;;;;15.52;9.15;;;;;;;;;;5032749;28;20428;-69
2022/01/29 03:17:27;;;;;;;14.95;8.65;;;;;;;;;;5032222;28;20042;-67
2022/01/29 03:19:54;;;;;;;18.55;8.70;;;;;;;;;;5032355;28;20056;-68
2022/01/29 03:22:20;;;;;;;13.23;9.25;;;;;;;;;;5032419;28;20045;-69
2022/01/29 03:24:47;;;;;;;13.35;8.93;;;;;;;;;;5032338;28;20115;-69
2022/01/29 03:27:13;;;;;;;13.85;8.70;;;;;;;;;;5032806;28;20045;-67
2022/01/29 03:29:40;;;;;;;17.02;9.02;;;;;;;;;;5032331;28;20107;-68
2022/01/29 03:32:07;;;;;;;16.25;10.30;;;;;;;;;;5032460;28;20046;-69
2022/01/29 03:34:33;;;;;;;16.45;9.70;;;;;;;;;;5032144;28;20193;-68
2022/01/29 03:37:00;;;;;;;15.25;10.00;;;;;;;;;;5032114;28;20099;-68
2022/01/29 03:39:28;;;;;;;15.88;10.60;;;;;;;;;;5031286;28;20049;-68
2022/01/29 03:42:00;;;;;;;13.73;9.27;;;;;;;;;;5031846;28;20103;-68
2022/01/29 03:44:27;;;;;;;18.15;10.35;;;;;;;;;;5031783;28;20049;-69
2022/01/29 03:46:54;;;;;;;14.27;9.85;;;;;;;;;;5031906;28;20155;-68
2022/01/29 03:49:20;;;;;;;16.42;9.13;;;;;;;;;;5031454;28;20092;-68
2022/01/29 03:51:47;;;;;;;17.92;10.02;;;;;;;;;;5031710;28;20049;-68
2022/01/29 03:54:13;;;;;;;13.45;9.13;;;;;;;;;;5031456;28;20558;-68
2022/01/29 03:56:40;;;;;;;15.48;9.55;;;;;;;;;;5031579;28;20045;-69
2022/01/29 03:59:07;;;;;;;17.58;9.63;;;;;;;;;;5031368;28;20475;-68
2022/01/29 04:01:33;;;;;;;15.38;9.75;;;;;;;;;;5031524;28;20488;-69
2022/01/29 04:04:00;;;;;;;14.35;9.02;;;;;;;;;;5031470;28;20492;-69
2022/01/29 04:06:27;;;;;;;13.10;8.35;;;;;;;;;;5031644;28;20097;-67
2022/01/29 04:08:53;;;;;;;18.42;9.23;;;;;;;;;;5030262;28;20076;-68
2022/01/29 04:11:22;;;;;;;16.02;9.50;;;;;;;;;;5031728;28;20092;-68
2022/01/29 04:13:49;;;;;;;15.68;9.13;;;;;;;;;;5031683;28;20539;-69
2022/01/29 04:16:16;;;;;;;16.17;9.55;;;;;;;;;;5031442;28;20076;-69
2022/01/29 04:18:43;;;;;;;16.30;9.90;;;;;;;;;;5031259;28;20041;-67
2022/01/29 04:21:10;;;;;;;18.45;9.65;;;;;;;;;;5031570;28;20099;-69
2022/01/29 04:23:37;;;;;;;14.38;9.43;;;;;;;;;;5031484;28;20053;-69
2022/01/29 04:26:04;;;;;;;20.90;9.60;;;;;;;;;;5031750;28;20084;-67
2022/01/29 04:28:32;;;;;;;16.27;9.13;;;;;;;;;;5031512;28;20061;-69
2022/01/29 04:31:04;;;;;;;18.45;9.75;;;;;;;;;;5031571;28;20416;-69
2022/01/29 04:33:31;;;;;;;13.63;9.48;;;;;;;;;;5031345;28;20519;-68
2022/01/29 04:35:59;;;;;;;16.63;9.60;;;;;;;;;;5031551;28;20077;-68
2022/01/29 04:38:27;;;;;;;16.92;9.55;;;;;;;;;;5031150;28;20087;-68
2022/01/29 04:40:54;;;;;;;14.80;9.55;;;;;;;;;;5031547;28;20057;-67
2022/01/29 04:43:21;;;;;;;14.05;9.40;;;;;;;;;;5031270;28;20107;-69
2022/01/29 04:45:48;;;;;;;17.15;9.68;;;;;;;;;;5031041;28;20100;-68
2022/01/29 04:48:15;;;;;;;16.65;10.30;;;;;;;;;;5031310;28;20068;-69
2022/01/29 04:50:43;;;;;;;16.88;10.57;;;;;;;;;;5031031;28;20057;-69
2022/01/29 04:53:10;;;;;;;16.02;10.25;;;;;;;;;;5031211;28;20099;-69
2022/01/29 04:55:37;;;;;;;18.38;10.30;;;;;;;;;;5031261;28;20107;-68
2022/01/29 04:58:04;;;;;;;21.55;10.10;;;;;;;;;;5031202;28;20076;-67
2022/01/29 05:00:32;;;;;;;19.23;10.63;;;;;;;;;;5032037;28;20053;-68
2022/01/29 05:03:08;;;;;;;19.92;10.68;;;;;;;;;;5034989;28;20049;-70
2022/01/29 05:05:35;;;;;;;18.40;10.45;;;;;;;;;;5035038;28;20401;-69
2022/01/29 05:08:03;;;;;;;21.70;11.90;;;;;;;;;;5034957;28;20060;-69
2022/01/29 05:10:30;;;;;;;19.13;10.75;;;;;;;;;;5034958;28;20049;-69
2022/01/29 05:13:01;;;;;;;20.05;11.25;;;;;;;;;;5034642;28;20072;-69
2022/01/29 05:15:47;;;;;;;22.85;11.80;;;;;;;;;;5034935;28;20045;-69
2022/01/29 05:26:50;;;;;;;19.77;10.85;;;;;;;;;;5034920;28;20049;-68
2022/01/29 05:29:19;;;;;;;19.48;11.90;;;;;;;;;;5032824;28;20041;-69
2022/01/29 05:31:45;;;;;;;17.42;11.23;;;;;;;;;;5033395;28;20488;-69
2022/01/29 05:34:12;;;;;;;20.02;11.10;;;;;;;;;;5034445;28;20057;-68
2022/01/29 05:36:38;;;;;;;19.75;12.27;;;;;;;;;;5034410;28;20053;-69
2022/01/29 05:39:05;;;;;;;21.17;11.90;;;;;;;;;;5034499;28;20099;-69
2022/01/29 05:41:32;;;;;;;22.80;12.10;;;;;;;;;;5034489;28;20080;-68
2022/01/29 05:43:58;;;;;;;21.70;13.70;;;;;;;;;;5034293;28;20054;-68
2022/01/29 05:46:25;;;;;;;21.80;12.95;;;;;;;;;;5034429;28;20486;-68
2022/01/29 05:48:52;;;;;;;20.55;12.65;;;;;;;;;;5034105;28;20119;-68
2022/01/29 05:51:18;;;;;;;22.20;13.73;;;;;;;;;;5034186;28;20115;-69
2022/01/29 05:53:45;;;;;;;21.90;13.48;;;;;;;;;;5033777;28;20050;-70
2022/01/29 05:56:11;;;;;;;25.88;14.88;;;;;;;;;;5034130;28;20080;-69
2022/01/29 05:58:38;;;;;;;25.83;14.68;;;;;;;;;;5033780;28;20064;-68
2022/01/29 06:01:05;;;;;;;22.77;14.57;;;;;;;;;;5033892;28;20053;-68
2022/01/29 06:03:32;;;;;;;24.88;15.18;;;;;;;;;;5032574;28;20049;-69
2022/01/29 06:05:58;;;;;;;25.67;14.93;;;;;;;;;;5033830;28;20053;-68
2022/01/29 06:08:25;;;;;;;22.02;14.32;;;;;;;;;;5033538;28;20565;-69
2022/01/29 06:10:51;;;;;;;24.70;15.15;;;;;;;;;;5034258;28;20054;-68
2022/01/29 06:13:18;;;;;;;28.35;16.08;;;;;;;;;;5033394;28;20049;-68
2022/01/29 06:15:46;;;;;;;25.10;15.38;;;;;;;;;;5033615;28;20512;-68
2022/01/29 06:18:17;;;;;;;27.23;16.38;;;;;;;;;;5033613;28;20049;-68
2022/01/29 06:20:48;;;;;;;27.08;15.73;;;;;;;;;;5033685;28;20115;-68
2022/01/29 06:23:15;;;;;;;24.27;15.35;;;;;;;;;;5033477;28;20072;-69
2022/01/29 06:25:42;;;;;;;23.65;14.90;;;;;;;;;;5033507;28;20049;-68
2022/01/29 06:28:09;;;;;;;28.35;15.02;;;;;;;;;;5033209;28;20045;-68
2022/01/29 06:30:36;;;;;;;25.75;14.70;;;;;;;;;;5032014;28;20543;-68
2022/01/29 06:33:09;;;;;;;24.60;14.07;;;;;;;;;;5033521;28;20103;-68
2022/01/29 06:35:37;;;;;;;28.30;16.08;;;;;;;;;;5033114;28;20501;-70
2022/01/29 06:38:07;;;;;;;26.55;14.75;;;;;;;;;;5032982;28;20084;-68
2022/01/29 06:40:35;;;;;;;25.30;13.75;;;;;;;;;;5033180;28;20076;-69
2022/01/29 06:43:03;;;;;;;23.90;13.10;;;;;;;;;;5032906;28;20135;-68
2022/01/29 06:45:34;;;;;;;22.88;14.27;;;;;;;;;;5031932;28;20095;-69
2022/01/29 06:48:01;;;;;;;23.60;14.93;;;;;;;;;;5032912;28;20523;-68
2022/01/29 06:50:28;;;;;;;27.20;14.57;;;;;;;;;;5033658;28;20049;-69
2022/01/29 06:52:54;;;;;;;22.90;14.02;;;;;;;;;;5032694;28;20107;-68
2022/01/29 06:55:21;;;;;;;26.05;14.63;;;;;;;;;;5032881;28;20088;-69
2022/01/29 06:57:48;;;;;;;23.63;14.85;;;;;;;;;;5032550;28;20491;-67
2022/01/29 07:00:34;;;;;;;26.52;15.70;;;;;;;;;;5033040;28;20141;-68
2022/01/29 07:03:02;;;;;;;25.98;14.20;;;;;;;;;;5032622;28;20057;-69
2022/01/29 07:05:28;;;;;;;23.17;13.48;;;;;;;;;;5031543;28;20046;-68
2022/01/29 07:07:55;;;;;;;21.85;13.57;;;;;;;;;;5033348;28;20099;-69
2022/01/29 07:10:21;;;;;;;23.58;14.48;;;;;;;;;;5032708;28;20045;-68
2022/01/29 07:12:48;;;;;;;23.88;14.27;;;;;;;;;;5032101;28;20049;-67
2022/01/29 07:15:15;;;;;;;21.65;13.20;;;;;;;;;;5032593;28;20049;-68
2022/01/29 07:17:41;;;;;;;21.98;13.80;;;;;;;;;;5032154;28;20056;-69
2022/01/29 07:20:08;;;;;;;20.70;13.50;;;;;;;;;;5032510;28;20053;-69
2022/01/29 07:22:35;;;;;;;25.58;14.15;;;;;;;;;;5031251;28;20492;-68
2022/01/29 07:25:02;;;;;;;22.55;12.43;;;;;;;;;;5032016;28;20129;-68
2022/01/29 07:27:28;;;;;;;21.50;13.70;;;;;;;;;;5029414;28;20085;-66
2022/01/29 07:29:55;;;;;;;28.75;16.67;;;;;;;;;;5030275;28;20467;-67
2022/01/29 07:32:22;;;;;;;24.95;16.50;;;;;;;;;;5030182;28;20057;-66
2022/01/29 07:34:48;;;;;;;24.63;16.30;;;;;;;;;;5029856;28;20085;-67
2022/01/29 07:37:15;;;;;;;21.77;14.63;;;;;;;;;;5030305;28;20054;-66
2022/01/29 07:39:41;;;;;;;22.08;13.80;;;;;;;;;;5032758;28;20088;-67
2022/01/29 07:42:09;;;;;;;20.08;13.13;;;;;;;;;;5030463;28;20098;-67
2022/01/29 07:44:35;;;;;;;20.30;12.77;;;;;;;;;;5029987;28;20057;-67
2022/01/29 07:47:02;;;;;;;19.05;13.40;;;;;;;;;;5030198;28;20156;-67
2022/01/29 07:49:28;;;;;;;21.27;13.32;;;;;;;;;;5029979;28;20159;-67
2022/01/29 07:51:55;;;;;;;30.15;14.77;;;;;;;;;;5029646;28;20103;-66
2022/01/29 07:54:22;;;;;;;22.10;13.02;;;;;;;;;;5029571;28;20049;-66
2022/01/29 07:56:48;;;;;;;19.77;11.00;;;;;;;;;;5029674;28;20057;-67
2022/01/29 07:59:15;;;;;;;17.48;10.32;;;;;;;;;;5029617;28;20045;-68
2022/01/29 08:01:41;;;;;;;17.35;9.95;;;;;;;;;;5029535;28;20482;-67
2022/01/29 08:04:08;;;;;;;15.93;9.30;;;;;;;;;;5029834;28;20046;-67
2022/01/29 08:06:35;;;;;;;12.35;8.05;;;;;;;;;;5009378;28;20099;-69
2022/01/29 08:09:02;;;;;;;14.55;8.75;;;;;;;;;;5009878;28;20434;-64
2022/01/29 08:11:28;;;;;;;10.15;6.80;;;;;;;;;;5007372;28;20052;-68
2022/01/29 08:13:55;;;;;;;11.15;7.20;;;;;;;;;;5054762;28;20091;-68
2022/01/29 08:16:21;;;;;;;11.65;7.70;;;;;;;;;;5046931;28;20060;-66
2022/01/29 08:18:48;;;;;;;13.65;7.97;;;;;;;;;;5046507;28;20127;-66
2022/01/29 08:21:15;;;;;;;12.20;7.32;;;;;;;;;;5048440;28;20420;-67
2022/01/29 08:23:42;;;;;;;13.25;7.35;;;;;;;;;;5045882;28;20045;-68
2022/01/29 08:26:10;;;;;;;10.70;7.32;;;;;;;;;;5047828;28;20099;-69
2022/01/29 08:28:37;;;;;;;10.98;6.75;;;;;;;;;;5048965;28;20045;-68
2022/01/29 08:31:05;;;;;;;11.95;6.63;;;;;;;;;;5047905;28;20110;-65
2022/01/29 08:33:32;;;;;;;16.85;8.55;;;;;;;;;;5046255;28;20048;-68
2022/01/29 08:35:59;;;;;;;19.27;10.80;;;;;;;;;;5049019;28;20085;-66
2022/01/29 08:38:25;;;;;;;14.18;8.10;;;;;;;;;;5051879;28;20080;-67
2022/01/29 08:40:53;;;;;;;15.02;7.75;;;;;;;;;;5051608;28;20515;-67
2022/01/29 08:43:19;;;;;;;8.68;4.70;;;;;;;;;;5049718;28;20118;-67
2022/01/29 08:45:46;;;;;;;7.05;4.63;;;;;;;;;;5051169;28;20045;-67
2022/01/29 08:48:12;;;;;;;6.25;3.92;;;;;;;;;;5051640;28;20111;-69
2022/01/29 08:50:40;;;;;;;6.53;4.22;;;;;;;;;;5051255;28;20092;-67
2022/01/29 08:53:11;;;;;;;5.60;3.17;;;;;;;;;;5051656;28;20401;-66
2022/01/29 08:55:38;;;;;;;6.82;3.65;;;;;;;;;;5051231;28;20088;-68
2022/01/29 08:58:06;;;;;;;6.25;3.78;;;;;;;;;;5051066;28;20053;-68
2022/01/29 09:00:32;;;;;;;8.75;4.38;;;;;;;;;;5049578;28;20045;-70
2022/01/29 09:02:59;;;;;;;8.50;4.93;;;;;;;;;;5050608;28;20056;-69
2022/01/29 09:05:26;;;;;;;4.32;2.83;;;;;;;;;;5050057;28;20045;-66
2022/01/29 09:07:52;;;;;;;6.45;3.58;;;;;;;;;;5051061;28;20500;-67
2022/01/29 09:10:19;;;;;;;7.13;3.42;;;;;;;;;;5051266;28;20126;-67
2022/01/29 09:12:46;;;;;;;6.72;3.28;;;;;;;;;;5050696;28;20079;-67
2022/01/29 09:15:12;;;;;;;7.05;3.72;;;;;;;;;;5051029;28;20049;-67
2022/01/29 09:17:40;;;;;;;7.20;3.80;;;;;;;;;;5050813;28;20126;-68
2022/01/29 09:20:09;;;;;;;5.85;3.78;;;;;;;;;;5051270;28;20120;-67
2022/01/29 09:22:36;;;;;;;6.50;3.20;;;;;;;;;;5049468;28;20052;-67
2022/01/29 09:25:03;;;;;;;6.63;3.80;;;;;;;;;;5053324;28;20049;-68
2022/01/29 09:27:30;;;;;;;6.30;3.33;;;;;;;;;;5052645;28;20049;-67
2022/01/29 09:29:56;;;;;;;4.15;2.67;;;;;;;;;;5052452;28;20041;-70
2022/01/29 09:32:24;;;;;;;3.70;2.78;;;;;;;;;;5052921;28;20056;-69
2022/01/29 09:34:50;;;;;;;6.20;3.03;;;;;;;;;;5048929;28;20088;-68
2022/01/29 09:37:17;;;;;;;8.05;3.90;;;;;;;;;;5052435;28;20041;-68
2022/01/29 09:39:44;;;;;;;4.10;2.72;;;;;;;;;;5050615;28;20338;-68
2022/01/29 09:42:11;;;;;;;7.50;3.58;;;;;;;;;;5052913;28;20466;-68
2022/01/29 09:44:37;;;;;;;5.75;3.40;;;;;;;;;;5052312;28;20049;-68
2022/01/29 09:47:05;;;;;;;4.88;3.40;;;;;;;;;;5051500;28;20052;-68
2022/01/29 09:49:33;;;;;;;6.55;3.40;;;;;;;;;;5052413;28;20045;-67
2022/01/29 09:52:00;;;;;;;4.40;3.38;;;;;;;;;;5053188;28;20049;-69
2022/01/29 09:54:27;;;;;;;5.35;3.15;;;;;;;;;;5050566;28;20048;-68
2022/01/29 09:56:53;;;;;;;3.95;3.47;;;;;;;;;;5052743;28;20087;-68
2022/01/29 09:59:21;;;;;;;5.57;3.88;;;;;;;;;;5052120;28;20048;-68
2022/01/29 10:01:49;;;;;;;3.80;3.05;;;;;;;;;;5051746;28;20087;-68
2022/01/29 10:04:16;;;;;;;5.35;3.75;;;;;;;;;;5051939;28;20135;-69
2022/01/29 10:06:45;;;;;;;5.35;3.72;;;;;;;;;;5051869;28;20094;-67
2022/01/29 10:09:33;;;;;;;3.35;3.05;;;;;;;;;;5050611;28;20114;-68
2022/01/29 10:12:23;;;;;;;5.20;3.05;;;;;;;;;;5036800;28;20566;-68
2022/01/29 10:15:07;;;;;;;3.97;3.05;;;;;;;;;;5051428;28;20139;-67
2022/01/29 10:17:51;;;;;;;4.25;2.70;;;;;;;;;;5048723;28;20052;-66
2022/01/29 10:20:26;;;;;;;4.75;3.03;;;;;;;;;;5048459;28;20086;-66
2022/01/29 10:22:57;;;;;;;7.40;4.07;;;;;;;;;;5051384;28;20044;-66
2022/01/29 10:25:29;;;;;;;4.95;2.90;;;;;;;;;;5051684;28;20071;-68
2022/01/29 10:28:05;;;;;;;4.65;2.90;;;;;;;;;;5050936;28;20040;-68
2022/01/29 10:30:34;;;;;;;6.20;3.15;;;;;;;;;;5046604;28;20049;-70
2022/01/29 10:33:22;;;;;;;4.10;2.58;;;;;;;;;;5050972;28;20048;-71
2022/01/29 10:35:54;;;;;;;3.78;2.75;;;;;;;;;;5048005;28;20114;-68
2022/01/29 10:38:22;;;;;;;6.60;3.85;;;;;;;;;;5051156;28;20075;-71
2022/01/29 10:41:22;;;;;;;6.47;3.60;;;;;;;;;;5039894;28;20111;-72
2022/01/29 10:43:55;;;;;;;3.92;2.63;;;;;;;;;;5051610;28;20054;-75
2022/01/29 10:46:26;;;;;;;5.47;3.10;;;;;;;;;;5051602;28;20136;-73
2022/01/29 10:48:53;;;;;;;3.65;2.70;;;;;;;;;;5025644;28;20488;-75
2022/01/29 10:51:20;;;;;;;3.65;2.47;;;;;;;;;;5046845;28;20072;-78
2022/01/29 10:53:47;;;;;;;4.32;2.45;;;;;;;;;;5050451;28;20470;-74
2022/01/29 10:56:13;;;;;;;3.60;2.45;;;;;;;;;;5051203;28;20045;-76
2022/01/29 10:58:41;;;;;;;4.82;2.72;;;;;;;;;;5049944;28;20052;-73
2022/01/29 11:01:24;;;;;;;5.22;2.95;;;;;;;;;;5050769;28;20045;-75
2022/01/29 11:03:54;;;;;;;4.18;2.40;;;;;;;;;;5047275;28;20057;-74
2022/01/29 11:06:27;;;;;;;3.78;2.80;;;;;;;;;;5050040;28;20114;-74
2022/01/29 11:08:54;;;;;;;7.00;3.47;;;;;;;;;;5049484;28;20140;-75
2022/01/29 11:11:21;;;;;;;4.38;3.08;;;;;;;;;;5039802;28;20071;-74
2022/01/29 11:14:09;;;;;;;4.35;2.78;;;;;;;;;;5034813;28;20480;-73
2022/01/29 11:16:36;;;;;;;2.97;2.22;;;;;;;;;;5038367;28;20050;-73
2022/01/29 11:19:02;;;;;;;4.70;2.63;;;;;;;;;;5046656;28;20049;-72
2022/01/29 11:21:29;;;;;;;7.65;3.28;;;;;;;;;;5048148;28;20064;-74
2022/01/29 11:23:56;;;;;;;3.72;2.70;;;;;;;;;;5049582;28;20091;-72
2022/01/29 11:26:23;;;;;;;3.63;2.53;;;;;;;;;;5022348;28;20045;-72
2022/01/29 11:28:50;;;;;;;3.45;2.28;;;;;;;;;;5023068;28;20056;-70
2022/01/29 11:31:19;;;;;;;4.03;2.67;;;;;;;;;;5049061;28;20041;-69
2022/01/29 11:33:57;;;;;;;4.97;2.42;;;;;;;;;;5041951;28;20053;-72
2022/01/29 11:36:49;;;;;;;2.80;1.90;;;;;;;;;;5050533;28;20052;-70
2022/01/29 11:39:24;;;;;;;4.20;2.47;;;;;;;;;;5050023;28;20508;-71
2022/01/29 11:42:10;;;;;;;4.10;2.90;;;;;;;;;;5048716;28;20049;-71
2022/01/29 11:44:37;;;;;;;10.40;5.43;;;;;;;;;;5048097;28;20451;-71
2022/01/29 11:47:22;;;;;;;4.15;2.67;;;;;;;;;;5049215;28;20107;-71
2022/01/29 11:49:50;;;;;;;2.78;2.00;;;;;;;;;;5049487;28;20051;-75
2022/01/29 11:52:21;;;;;;;3.28;2.30;;;;;;;;;;5049996;28;20045;-72
2022/01/29 11:55:03;;;;;;;5.90;2.53;;;;;;;;;;5048790;28;20152;-74
2022/01/29 11:57:29;;;;;;;3.92;3.17;;;;;;;;;;5049820;28;20045;-70
2022/01/29 11:59:56;;;;;;;3.38;2.15;;;;;;;;;;5046105;28;20059;-66
2022/01/29 12:02:27;;;;;;;5.05;2.40;;;;;;;;;;5039892;28;20049;-66
2022/01/29 12:05:15;;;;;;;12.38;4.20;;;;;;;;;;5050434;28;20135;-66
2022/01/29 12:08:04;;;;;;;4.47;2.63;;;;;;;;;;5046467;28;20049;-66
2022/01/29 12:10:37;;;;;;;8.70;4.20;;;;;;;;;;5046183;28;20405;-69
2022/01/29 12:13:14;;;;;;;8.23;4.28;;;;;;;;;;5048948;28;20044;-68
2022/01/29 12:15:41;;;;;;;4.78;2.47;;;;;;;;;;5049138;28;20794;-71
2022/01/29 12:18:25;;;;;;;6.68;3.10;;;;;;;;;;5050369;28;20123;-70
2022/01/29 12:20:52;;;;;;;4.55;2.60;;;;;;;;;;5049113;28;20101;-66
2022/01/29 12:23:19;;;;;;;6.85;3.95;;;;;;;;;;5049332;28;20103;-70
2022/01/29 12:25:57;;;;;;;5.20;3.00;;;;;;;;;;5049667;28;20052;-68
2022/01/29 12:28:25;;;;;;;6.07;3.47;;;;;;;;;;5049584;28;20496;-70
2022/01/29 12:30:51;;;;;;;8.10;4.10;;;;;;;;;;5049489;28;20103;-69
2022/01/29 12:33:20;;;;;;;4.63;2.83;;;;;;;;;;5049599;28;20041;-68
2022/01/29 12:36:02;;;;;;;6.28;3.67;;;;;;;;;;5049468;28;20060;-70
2022/01/29 12:38:39;;;;;;;6.82;4.05;;;;;;;;;;5049400;28;20045;-71
2022/01/29 12:41:07;;;;;;;6.10;2.80;;;;;;;;;;5047296;28;20053;-70
2022/01/29 12:43:39;;;;;;;3.15;2.55;;;;;;;;;;5049214;28;20061;-70
2022/01/29 12:46:12;;;;;;;3.50;2.53;;;;;;;;;;5047631;28;20101;-69
2022/01/29 12:48:40;;;;;;;2.65;2.00;;;;;;;;;;5049133;28;20423;-67
2022/01/29 12:51:09;;;;;;;1.50;1.30;;;;;;;;;;5049526;28;20041;-70
2022/01/29 12:53:36;;;;;;;2.20;1.98;;;;;;;;;;5048747;28;20061;-69
2022/01/29 12:56:08;;;;;;;2.47;1.75;;;;;;;;;;5045951;28;20649;-69
2022/01/29 12:58:41;;;;;;;2.80;1.50;;;;;;;;;;5049058;28;20049;-68
2022/01/29 13:01:17;;;;;;;2.13;1.70;;;;;;;;;;5048925;28;20045;-68
2022/01/29 13:03:44;;;;;;;1.80;1.63;;;;;;;;;;5048702;28;20049;-68
2022/01/29 13:06:13;;;;;;;3.05;1.80;;;;;;;;;;5049266;28;20056;-70
2022/01/29 13:08:40;;;;;;;3.80;1.98;;;;;;;;;;5045443;28;20114;-70
2022/01/29 13:11:28;;;;;;;3.13;1.92;;;;;;;;;;5048402;28;20045;-69
2022/01/29 13:13:56;;;;;;;3.13;1.98;;;;;;;;;;5048724;28;20499;-68
2022/01/29 13:16:29;;;;;;;2.88;1.73;;;;;;;;;;5048168;28;20045;-68
2022/01/29 13:18:56;;;;;;;3.22;1.77;;;;;;;;;;5049088;28;20044;-68
2022/01/29 13:21:26;;;;;;;2.50;1.65;;;;;;;;;;5048132;28;20048;-69
2022/01/29 13:23:56;;;;;;;3.85;2.65;;;;;;;;;;5049959;28;20306;-71
2022/01/29 13:26:29;;;;;;;2.75;1.75;;;;;;;;;;5025476;28;20504;-69
2022/01/29 13:29:11;;;;;;;4.25;2.20;;;;;;;;;;5049237;28;20482;-68
2022/01/29 13:31:45;;;;;;;3.20;2.20;;;;;;;;;;5043517;28;20053;-69
2022/01/29 13:34:28;;;;;;;4.63;2.28;;;;;;;;;;5051615;28;20553;-71
2022/01/29 13:36:55;;;;;;;2.97;2.10;;;;;;;;;;5040229;28;20054;-69
2022/01/29 13:39:22;;;;;;;3.35;1.90;;;;;;;;;;5052733;28;20333;-69
2022/01/29 13:42:10;;;;;;;3.67;1.73;;;;;;;;;;5052175;28;20053;-70
2022/01/29 13:45:23;;;;;;;3.90;1.67;;;;;;;;;;5064421;28;20060;-72
2022/01/29 13:48:13;;;;;;;3.08;1.95;;;;;;;;;;5052372;28;20052;-66
2022/01/29 13:50:52;;;;;;;2.35;1.70;;;;;;;;;;5051621;28;20045;-66
2022/01/29 13:53:23;;;;;;;4.07;1.85;;;;;;;;;;5048337;28;20589;-67
2022/01/29 13:56:20;;;;;;;4.20;2.10;;;;;;;;;;5050365;28;20118;-66
2022/01/29 13:59:03;;;;;;;4.80;2.15;;;;;;;;;;5022214;28;20498;-66
2022/01/29 14:01:42;;;;;;;2.80;2.20;;;;;;;;;;5047901;28;20045;-67
2022/01/29 14:04:37;;;;;;;2.22;1.80;;;;;;;;;;5049551;28;20052;-67
2022/01/29 14:07:13;;;;;;;4.20;2.00;;;;;;;;;;5050662;28;20102;-67
2022/01/29 14:12:16;;;;;;;3.33;2.00;;;;;;;;;;5045284;28;20049;-66
2022/01/29 14:14:53;;;;;;;3.17;2.00;;;;;;;;;;5050873;28;20098;-66
2022/01/29 14:17:35;;;;;;;14.75;7.40;;;;;;;;;;5045810;28;20056;-66
2022/01/29 14:20:02;;;;;;;9.18;5.95;;;;;;;;;;5046220;28;20053;-67
2022/01/29 14:22:30;;;;;;;3.47;2.33;;;;;;;;;;5047612;28;20103;-67
2022/01/29 14:24:59;;;;;;;2.75;1.58;;;;;;;;;;5049942;28;20110;-68
2022/01/29 14:27:26;;;;;;;2.15;1.60;;;;;;;;;;5050471;28;20060;-65
2022/01/29 14:29:53;;;;;;;3.70;1.70;;;;;;;;;;5049571;28;20045;-67
2022/01/29 14:32:21;;;;;;;2.67;1.73;;;;;;;;;;5049617;28;20109;-67
2022/01/29 14:35:01;;;;;;;2.95;1.73;;;;;;;;;;5049119;28;20044;-67
2022/01/29 14:37:28;;;;;;;3.50;1.83;;;;;;;;;;5050314;28;20115;-66
2022/01/29 14:39:55;;;;;;;2.78;1.65;;;;;;;;;;5049330;28;20051;-66
2022/01/29 14:42:27;;;;;;;4.97;1.52;;;;;;;;;;5049675;28;20065;-66
2022/01/29 14:44:54;;;;;;;2.50;1.27;;;;;;;;;;5050602;28;20472;-68
2022/01/29 14:47:21;;;;;;;2.95;1.50;;;;;;;;;;5064347;28;20059;-67
2022/01/29 14:49:48;;;;;;;2.50;1.63;;;;;;;;;;5064438;28;20580;-68
2022/01/29 14:52:15;;;;;;;1.55;1.30;;;;;;;;;;5065072;28;20059;-67
2022/01/29 14:54:42;;;;;;;1.67;1.45;;;;;;;;;;5063468;28;20060;-67
2022/01/29 14:57:09;;;;;;;1.65;1.45;;;;;;;;;;5063860;28;20049;-67
2022/01/29 14:59:36;;;;;;;2.00;1.42;;;;;;;;;;5064768;28;20061;-67
2022/01/29 15:02:03;;;;;;;1.58;1.27;;;;;;;;;;5062952;28;20049;-67
2022/01/29 15:04:31;;;;;;;2.80;1.67;;;;;;;;;;5063011;28;20510;-67